createdAt,value
2018-01-31T01:52:20.700Z,41.03
2018-01-31T01:52:30.366Z,40.63
2018-01-31T01:53:30.341Z,40.72
2018-01-31T01:54:30.283Z,40.63
2018-01-31T01:55:30.316Z,40.05
2018-01-31T01:56:30.201Z,40.53
2018-01-31T01:57:30.359Z,40.53
2018-01-31T01:58:30.120Z,40.43
2018-01-31T01:59:30.082Z,40.53
2018-01-31T02:00:30.144Z,40.14
2018-01-31T02:01:29.995Z,40.34
2018-01-31T02:02:29.958Z,40.14
2018-01-31T02:03:29.916Z,40.63
2018-01-31T02:04:29.894Z,40.14
2018-01-31T02:05:29.837Z,40.24
2018-01-31T02:06:29.966Z,40.24
2018-01-31T02:07:29.755Z,40.72
2018-01-31T02:08:29.713Z,40.63
2018-01-31T02:09:30.721Z,40.53
2018-01-31T02:10:29.631Z,40.53
2018-01-31T02:11:29.591Z,40.34
2018-01-31T02:12:29.551Z,40.63
2018-01-31T02:13:29.509Z,40.53
2018-01-31T02:14:29.466Z,40.53
2018-01-31T02:15:29.447Z,40.63
2018-01-31T02:16:29.390Z,40.81
2018-01-31T02:17:29.346Z,40.34
2018-01-31T02:18:29.302Z,40.24
2018-01-31T02:19:29.489Z,40.24
2018-01-31T02:20:29.223Z,40.05
2018-01-31T02:21:29.182Z,40.43
2018-01-31T02:22:29.142Z,40.24
2018-01-31T02:23:29.102Z,40.05
2018-01-31T02:24:29.081Z,40.14
2018-01-31T02:25:29.019Z,40.24
2018-01-31T02:26:29.189Z,40.53
2018-01-31T02:27:28.937Z,40.14
2018-01-31T02:28:28.942Z,40.14
2018-01-31T02:29:28.856Z,40.24
2018-01-31T02:30:28.817Z,40.14
2018-01-31T02:31:28.777Z,40.24
2018-01-31T02:32:28.734Z,40.43
2018-01-31T02:33:28.885Z,40.14
2018-01-31T02:34:28.699Z,40.34
2018-01-31T02:35:28.611Z,40.43
2018-01-31T02:36:28.572Z,40.34
2018-01-31T02:37:28.530Z,40.14
2018-01-31T02:38:28.502Z,40.63
2018-01-31T02:39:28.452Z,40.53
2018-01-31T02:40:28.594Z,40.43
2018-01-31T02:41:28.368Z,40.53
2018-01-31T02:42:28.328Z,40.53
2018-01-31T02:43:28.287Z,40.53
2018-01-31T02:44:28.250Z,40.05
2018-01-31T02:45:28.208Z,40.24
2018-01-31T02:46:28.166Z,40.53
2018-01-31T02:47:28.124Z,40.53
2018-01-31T02:48:28.084Z,40.43
2018-01-31T02:49:28.204Z,40.43
2018-01-31T02:50:28.009Z,40.43
2018-01-31T02:51:27.959Z,40.05
2018-01-31T02:52:28.041Z,40.05
2018-01-31T02:53:27.884Z,40.43
2018-01-31T02:54:27.868Z,40.34
2018-01-31T02:55:27.802Z,40.24
2018-01-31T02:56:27.781Z,40.14
2018-01-31T02:57:27.719Z,40.43
2018-01-31T02:58:27.921Z,40.24
2018-01-31T02:59:27.636Z,40.05
2018-01-31T03:00:27.596Z,40.24
2018-01-31T03:01:27.556Z,40.14
2018-01-31T03:02:27.517Z,40.34
2018-01-31T03:03:27.474Z,39.86
2018-01-31T03:04:27.439Z,40.34
2018-01-31T03:05:27.608Z,40.05
2018-01-31T03:06:27.351Z,40.14
2018-01-31T03:07:27.312Z,39.78
2018-01-31T03:08:27.293Z,39.95
2018-01-31T03:09:27.230Z,40.05
2018-01-31T03:10:27.189Z,40.14
2018-01-31T03:11:27.148Z,40.05
2018-01-31T03:12:27.314Z,40.43
2018-01-31T03:13:27.152Z,40.05
2018-01-31T03:14:27.027Z,39.95
2018-01-31T03:15:26.988Z,39.86
2018-01-31T03:16:26.945Z,40.24
2018-01-31T03:17:26.904Z,40.34
2018-01-31T03:18:26.863Z,40.24
2018-01-31T03:19:27.020Z,40.24
2018-01-31T03:20:26.783Z,39.95
2018-01-31T03:21:26.744Z,40.05
2018-01-31T03:22:26.798Z,40.24
2018-01-31T03:23:26.661Z,40.34
2018-01-31T03:24:26.620Z,40.43
2018-01-31T03:25:26.625Z,40.53
2018-01-31T03:26:26.546Z,40.14
2018-01-31T03:27:26.501Z,40.53
2018-01-31T03:28:26.638Z,40.53
2018-01-31T03:29:26.417Z,40.24
2018-01-31T03:30:26.377Z,40.05
2018-01-31T03:31:26.451Z,40.24
2018-01-31T03:32:26.295Z,40.24
2018-01-31T03:33:26.362Z,40.14
2018-01-31T03:34:26.212Z,40.24
2018-01-31T03:35:26.181Z,40.24
2018-01-31T03:36:26.140Z,40.14
2018-01-31T03:37:26.091Z,40.63
2018-01-31T03:38:26.049Z,40.63
2018-01-31T03:39:26.232Z,40.53
2018-01-31T03:40:25.970Z,40.63
2018-01-31T03:41:25.928Z,40.63
2018-01-31T03:42:25.889Z,40.43
2018-01-31T03:43:25.847Z,40.53
2018-01-31T03:44:25.803Z,40.53
2018-01-31T03:45:25.766Z,40.63
2018-01-31T03:46:25.725Z,40.53
2018-01-31T03:47:25.684Z,40.53
2018-01-31T03:48:25.648Z,40.53
2018-01-31T03:49:25.604Z,40.53
2018-01-31T03:50:25.565Z,40.63
2018-01-31T03:51:25.560Z,40.53
2018-01-31T03:52:25.487Z,40.53
2018-01-31T03:53:25.440Z,40.43
2018-01-31T03:54:25.399Z,40.63
2018-01-31T03:55:25.360Z,40.05
2018-01-31T03:56:25.319Z,40.34
2018-01-31T03:57:25.448Z,40.63
2018-01-31T03:58:25.238Z,40.43
2018-01-31T03:59:25.195Z,40.81
2018-01-31T04:00:25.207Z,40.72
2018-01-31T04:01:25.114Z,40.63
2018-01-31T04:02:25.074Z,40.53
2018-01-31T04:03:25.033Z,40.72
2018-01-31T04:04:24.994Z,40.72
2018-01-31T04:05:24.951Z,41.01
2018-01-31T04:06:25.158Z,40.81
2018-01-31T04:07:24.870Z,40.81
2018-01-31T04:08:24.830Z,40.72
2018-01-31T04:09:25.888Z,41.01
2018-01-31T04:10:24.748Z,40.81
2018-01-31T04:11:24.706Z,40.81
2018-01-31T04:12:24.667Z,40.81
2018-01-31T04:13:24.625Z,40.72
2018-01-31T04:14:24.584Z,40.81
2018-01-31T04:15:24.545Z,40.81
2018-01-31T04:16:24.505Z,40.81
2018-01-31T04:17:24.462Z,40.80
2018-01-31T04:18:24.418Z,40.63
2018-01-31T04:19:24.563Z,41.20
2018-01-31T04:20:24.338Z,40.34
2018-01-31T04:21:24.301Z,40.61
2018-01-31T04:22:24.266Z,41.20
2018-01-31T04:23:24.217Z,40.72
2018-01-31T04:24:24.176Z,40.63
2018-01-31T04:25:24.136Z,40.72
2018-01-31T04:26:24.095Z,40.72
2018-01-31T04:27:24.055Z,40.81
2018-01-31T04:28:24.163Z,40.72
2018-01-31T04:29:23.972Z,40.81
2018-01-31T04:30:23.931Z,40.91
2018-01-31T04:31:23.890Z,40.53
2018-01-31T04:32:23.851Z,40.43
2018-01-31T04:33:23.809Z,40.41
2018-01-31T04:34:23.773Z,40.05
2018-01-31T04:35:23.727Z,40.63
2018-01-31T04:36:23.685Z,40.63
2018-01-31T04:37:23.883Z,40.05
2018-01-31T04:38:23.604Z,40.63
2018-01-31T04:39:23.564Z,40.81
2018-01-31T04:40:23.635Z,40.34
2018-01-31T04:41:23.482Z,40.14
2018-01-31T04:42:23.441Z,40.34
2018-01-31T04:43:23.399Z,40.53
2018-01-31T04:44:23.362Z,40.24
2018-01-31T04:45:23.318Z,40.14
2018-01-31T04:46:23.276Z,40.34
2018-01-31T04:47:23.237Z,40.24
2018-01-31T04:48:23.374Z,40.43
2018-01-31T04:49:23.151Z,40.05
2018-01-31T04:50:23.113Z,40.34
2018-01-31T04:51:23.094Z,40.34
2018-01-31T04:52:23.036Z,40.14
2018-01-31T04:53:22.990Z,40.05
2018-01-31T04:54:22.951Z,40.14
2018-01-31T04:55:22.929Z,40.05
2018-01-31T04:56:22.868Z,40.05
2018-01-31T04:57:22.991Z,40.24
2018-01-31T04:58:22.785Z,40.14
2018-01-31T04:59:22.746Z,40.24
2018-01-31T05:00:22.746Z,39.86
2018-01-31T05:01:22.661Z,40.14
2018-01-31T05:02:22.622Z,40.05
2018-01-31T05:03:22.581Z,40.43
2018-01-31T05:04:22.547Z,39.95
2018-01-31T05:05:22.500Z,39.76
2018-01-31T05:06:22.702Z,39.78
2018-01-31T05:07:22.419Z,39.78
2018-01-31T05:08:22.377Z,39.95
2018-01-31T05:09:22.337Z,39.97
2018-01-31T05:10:22.296Z,40.16
2018-01-31T05:11:22.255Z,39.97
2018-01-31T05:12:22.212Z,39.78
2018-01-31T05:13:22.173Z,39.87
2018-01-31T05:14:22.134Z,39.97
2018-01-31T05:15:22.296Z,40.07
2018-01-31T05:16:22.051Z,39.39
2018-01-31T05:17:22.011Z,39.49
2018-01-31T05:18:21.971Z,39.29
2018-01-31T05:19:21.928Z,39.49
2018-01-31T05:20:24.004Z,39.68
2018-01-31T05:21:21.848Z,39.49
2018-01-31T05:22:21.827Z,39.49
2018-01-31T05:23:21.766Z,39.59
2018-01-31T05:24:21.858Z,39.49
2018-01-31T05:25:21.690Z,39.78
2018-01-31T05:26:21.645Z,39.39
2018-01-31T05:27:22.720Z,39.39
2018-01-31T05:28:21.564Z,39.78
2018-01-31T05:29:21.522Z,39.49
2018-01-31T05:30:21.482Z,39.68
2018-01-31T05:31:21.440Z,39.59
2018-01-31T05:32:21.400Z,39.78
2018-01-31T05:33:21.616Z,39.39
2018-01-31T05:34:21.322Z,39.39
2018-01-31T05:35:21.279Z,39.59
2018-01-31T05:36:21.346Z,39.78
2018-01-31T05:37:21.196Z,39.68
2018-01-31T05:38:21.168Z,39.68
2018-01-31T05:39:21.115Z,39.39
2018-01-31T05:40:21.096Z,39.49
2018-01-31T05:41:21.034Z,39.49
2018-01-31T05:42:21.221Z,39.20
2018-01-31T05:43:20.954Z,39.68
2018-01-31T05:44:20.913Z,39.68
2018-01-31T05:45:20.895Z,39.11
2018-01-31T05:46:20.831Z,39.29
2018-01-31T05:47:20.791Z,39.29
2018-01-31T05:48:20.752Z,39.11
2018-01-31T05:49:20.726Z,39.29
2018-01-31T05:50:20.670Z,39.11
2018-01-31T05:51:20.817Z,39.11
2018-01-31T05:52:20.589Z,39.29
2018-01-31T05:53:20.546Z,39.11
2018-01-31T05:54:20.507Z,39.29
2018-01-31T05:55:20.467Z,39.20
2018-01-31T05:56:20.427Z,39.20
2018-01-31T05:57:20.385Z,39.11
2018-01-31T05:58:20.364Z,39.20
2018-01-31T05:59:20.335Z,39.29
2018-01-31T06:00:20.403Z,39.11
2018-01-31T06:01:20.223Z,39.11
2018-01-31T06:02:20.426Z,39.20
2018-01-31T06:03:20.142Z,39.20
2018-01-31T06:04:20.102Z,39.29
2018-01-31T06:05:20.065Z,39.20
2018-01-31T06:06:20.022Z,39.20
2018-01-31T06:07:19.980Z,39.39
2018-01-31T06:08:19.941Z,39.29
2018-01-31T06:09:19.905Z,39.29
2018-01-31T06:10:19.866Z,39.78
2018-01-31T06:11:19.819Z,39.01
2018-01-31T06:12:19.778Z,39.68
2018-01-31T06:13:19.737Z,39.59
2018-01-31T06:14:19.697Z,39.59
2018-01-31T06:15:19.663Z,39.49
2018-01-31T06:16:19.616Z,39.97
2018-01-31T06:17:19.582Z,40.07
2018-01-31T06:18:19.535Z,40.19
2018-01-31T06:19:19.496Z,39.89
2018-01-31T06:20:19.463Z,39.99
2018-01-31T06:21:19.643Z,39.79
2018-01-31T06:22:19.373Z,39.99
2018-01-31T06:23:19.334Z,39.61
2018-01-31T06:24:19.294Z,39.99
2018-01-31T06:25:19.258Z,39.79
2018-01-31T06:26:19.213Z,39.79
2018-01-31T06:27:19.177Z,40.09
2018-01-31T06:28:19.146Z,40.47
2018-01-31T06:29:19.098Z,40.95
2018-01-31T06:30:19.058Z,40.95
2018-01-31T06:31:19.017Z,41.24
2018-01-31T06:32:18.972Z,41.53
2018-01-31T06:33:18.930Z,41.82
2018-01-31T06:34:18.894Z,41.82
2018-01-31T06:35:18.856Z,41.63
2018-01-31T06:36:18.817Z,41.72
2018-01-31T06:37:18.772Z,41.82
2018-01-31T06:38:18.737Z,42.49
2018-01-31T06:39:18.689Z,42.49
2018-01-31T06:40:18.652Z,42.49
2018-01-31T06:41:18.608Z,42.32
2018-01-31T06:42:18.561Z,41.75
2018-01-31T06:43:18.533Z,42.03
2018-01-31T06:44:18.487Z,42.52
2018-01-31T06:45:18.448Z,41.84
2018-01-31T06:46:18.662Z,42.52
2018-01-31T06:47:18.375Z,41.84
2018-01-31T06:48:18.327Z,41.94
2018-01-31T06:49:18.339Z,41.94
2018-01-31T06:50:18.254Z,41.67
2018-01-31T06:51:18.212Z,41.75
2018-01-31T06:52:18.172Z,41.28
2018-01-31T06:53:18.133Z,41.07
2018-01-31T06:54:18.097Z,41.19
2018-01-31T06:55:18.057Z,41.19
2018-01-31T06:56:18.019Z,41.27
2018-01-31T06:57:17.970Z,41.17
2018-01-31T06:58:17.931Z,40.69
2018-01-31T06:59:17.892Z,40.99
2018-01-31T07:00:17.864Z,40.69
2018-01-31T07:01:17.816Z,40.39
2018-01-31T07:02:17.771Z,40.42
2018-01-31T07:03:17.732Z,40.39
2018-01-31T07:04:17.692Z,40.30
2018-01-31T07:05:17.640Z,40.01
2018-01-31T07:06:17.609Z,40.39
2018-01-31T07:07:17.578Z,40.30
2018-01-31T07:08:17.533Z,40.49
2018-01-31T07:09:17.493Z,40.51
2018-01-31T07:10:17.449Z,40.03
2018-01-31T07:11:17.416Z,40.22
2018-01-31T07:12:17.376Z,40.12
2018-01-31T07:15:05.970Z,39.64
2018-01-31T07:15:47.824Z,39.74
2018-01-31T07:17:39.637Z,38.89
2018-01-31T07:18:39.590Z,38.79
2018-01-31T07:20:31.412Z,38.70
2018-01-31T07:21:31.350Z,38.60
2018-01-31T07:23:23.168Z,38.12
2018-01-31T07:24:23.104Z,38.33
2018-01-31T07:26:14.920Z,37.46
2018-01-31T07:27:14.865Z,37.08
2018-01-31T07:29:06.685Z,36.52
2018-01-31T07:30:06.618Z,36.24
2018-01-31T07:31:58.423Z,35.95
2018-01-31T07:32:58.374Z,35.28
2018-01-31T07:34:50.190Z,35.00
2018-01-31T07:35:50.127Z,34.81
2018-01-31T07:37:41.935Z,34.34
2018-01-31T07:38:41.886Z,34.44
2018-01-31T07:40:33.703Z,33.69
2018-01-31T07:41:33.642Z,33.69
2018-01-31T07:43:25.445Z,33.59
2018-01-31T07:45:37.251Z,33.69
2018-01-31T07:46:37.191Z,33.69
2018-01-31T07:48:28.999Z,33.69
2018-01-31T07:49:28.955Z,33.49
2018-01-31T07:51:20.802Z,33.10
2018-01-31T07:52:20.724Z,33.39
2018-01-31T07:54:12.531Z,33.29
2018-01-31T07:55:12.480Z,33.12
2018-01-31T07:57:04.307Z,33.12
2018-01-31T07:58:04.245Z,33.31
2018-01-31T07:59:56.072Z,32.73
2018-01-31T08:03:03.841Z,31.60
2018-01-31T08:04:03.798Z,31.52
2018-01-31T08:06:06.137Z,30.66
2018-01-31T08:07:06.073Z,30.57
2018-01-31T08:08:57.884Z,30.57
2018-01-31T08:09:57.833Z,30.57
2018-01-31T08:11:49.663Z,31.23
2018-01-31T08:12:49.596Z,31.41
2018-01-31T08:14:41.406Z,31.60
2018-01-31T08:15:41.360Z,31.99
2018-01-31T08:17:33.189Z,32.46
2018-01-31T08:18:33.124Z,32.94
2018-01-31T08:20:24.944Z,33.42
2018-01-31T08:21:24.897Z,33.62
2018-01-31T08:23:16.718Z,33.60
2018-01-31T08:24:16.657Z,33.80
2018-01-31T08:26:08.469Z,33.70
2018-01-31T08:27:08.420Z,34.38
2018-01-31T08:29:00.240Z,34.09
2018-01-31T08:30:00.173Z,34.09
2018-01-31T08:31:52.017Z,33.60
2018-01-31T08:32:51.949Z,33.80
2018-01-31T08:34:43.758Z,33.70
2018-01-31T08:35:43.707Z,34.77
2018-01-31T08:37:35.533Z,34.09
2018-01-31T08:38:35.472Z,34.28
2018-01-31T08:40:27.274Z,34.47
2018-01-31T08:41:27.232Z,34.36
2018-01-31T08:43:19.052Z,34.36
2018-01-31T08:44:18.995Z,34.36
2018-01-31T08:46:11.798Z,34.55
2018-01-31T08:47:11.749Z,34.36
2018-01-31T08:49:03.581Z,34.45
2018-01-31T08:50:03.512Z,34.28
2018-01-31T08:51:55.314Z,34.07
2018-01-31T08:52:55.270Z,34.36
2018-01-31T08:54:47.101Z,34.47
2018-01-31T08:55:47.035Z,34.19
2018-01-31T08:57:38.870Z,34.28
2018-01-31T08:58:38.806Z,34.38
2018-01-31T09:00:30.624Z,34.27
2018-01-31T09:01:30.568Z,34.38
2018-01-31T09:03:22.398Z,34.45
2018-01-31T09:04:22.320Z,34.38
2018-01-31T09:06:14.128Z,34.55
2018-01-31T09:07:14.080Z,34.75
2018-01-31T09:09:05.916Z,34.65
2018-01-31T09:10:05.846Z,34.84
2018-01-31T09:11:57.649Z,34.45
2018-01-31T09:12:57.604Z,34.55
2018-01-31T09:14:50.420Z,34.75
2018-01-31T09:15:50.358Z,34.65
2018-01-31T09:17:42.168Z,34.55
2018-01-31T09:18:42.118Z,34.65
2018-01-31T09:20:33.955Z,34.84
2018-01-31T09:21:33.887Z,34.84
2018-01-31T09:23:25.713Z,34.65
2018-01-31T09:24:25.664Z,34.84
2018-01-31T09:26:17.494Z,34.55
2018-01-31T09:27:17.432Z,34.65
2018-01-31T09:29:09.246Z,34.67
2018-01-31T09:30:09.198Z,34.38
2018-01-31T09:32:01.485Z,34.77
2018-01-31T09:33:00.964Z,34.57
2018-01-31T09:34:52.786Z,34.67
2018-01-31T09:35:52.731Z,34.38
2018-01-31T09:37:44.531Z,34.96
2018-01-31T09:38:44.623Z,34.77
2018-01-31T09:40:36.326Z,34.77
2018-01-31T09:41:36.247Z,34.57
2018-01-31T09:43:28.058Z,34.67
2018-01-31T09:44:28.012Z,34.57
2018-01-31T09:46:19.845Z,34.86
2018-01-31T09:47:19.776Z,34.86
2018-01-31T09:49:12.594Z,34.86
2018-01-31T09:50:12.548Z,34.96
2018-01-31T09:52:04.369Z,34.77
2018-01-31T09:53:04.308Z,34.67
2018-01-31T09:54:56.505Z,34.28
2018-01-31T09:55:56.241Z,34.28
2018-01-31T09:57:47.946Z,34.38
2018-01-31T09:58:47.998Z,34.47
2018-01-31T10:00:39.689Z,34.28
2018-01-31T10:01:39.644Z,34.28
2018-01-31T10:03:31.666Z,34.57
2018-01-31T10:04:31.402Z,34.57
2018-01-31T10:06:23.348Z,34.57
2018-01-31T10:07:23.161Z,34.47
2018-01-31T10:10:45.488Z,34.75
2018-01-31T10:11:45.445Z,34.55
2018-01-31T10:13:37.270Z,34.84
2018-01-31T10:14:37.207Z,35.04
2018-01-31T10:16:29.019Z,35.23
2018-01-31T10:17:28.972Z,35.13
2018-01-31T10:19:21.801Z,35.33
2018-01-31T10:20:21.745Z,35.23
2018-01-31T10:22:13.548Z,35.23
2018-01-31T10:23:13.501Z,35.31
2018-01-31T10:25:05.324Z,34.94
2018-01-31T10:26:05.261Z,34.75
2018-01-31T10:27:57.095Z,34.84
2018-01-31T10:28:57.027Z,35.04
2018-01-31T10:30:48.828Z,34.94
2018-01-31T10:31:48.782Z,34.84
2018-01-31T10:33:40.604Z,34.94
2018-01-31T10:34:40.538Z,35.04
2018-01-31T10:36:32.363Z,35.13
2018-01-31T10:38:44.159Z,34.94
2018-01-31T10:39:44.094Z,34.94
2018-01-31T10:41:36.894Z,34.75
2018-01-31T10:42:37.005Z,35.23
2018-01-31T10:44:28.688Z,35.33
2018-01-31T10:45:28.608Z,35.23
2018-01-31T10:47:20.410Z,35.12
2018-01-31T10:48:20.363Z,35.60
2018-01-31T10:50:13.232Z,35.89
2018-01-31T10:51:13.173Z,35.99
2018-01-31T10:53:04.980Z,35.99
2018-01-31T10:58:48.499Z,35.80
2018-01-31T10:59:48.451Z,36.08
2018-01-31T11:01:40.269Z,36.28
2018-01-31T11:02:40.206Z,35.70
2018-01-31T11:04:35.145Z,35.12
2018-01-31T11:05:31.976Z,35.23
2018-01-31T11:07:23.872Z,34.84
2018-01-31T11:08:23.751Z,35.04
2018-01-31T11:10:15.582Z,35.13
2018-01-31T11:11:15.514Z,34.94
2018-01-31T11:13:07.328Z,34.86
2018-01-31T11:14:07.276Z,34.77
2018-01-31T11:15:59.102Z,34.67
2018-01-31T11:16:59.037Z,34.47
2018-01-31T11:18:50.843Z,34.47
2018-01-31T11:19:50.790Z,34.38
2018-01-31T11:21:42.629Z,34.09
2018-01-31T11:22:42.565Z,33.70
2018-01-31T11:24:34.372Z,33.80
2018-01-31T11:25:34.326Z,33.91
2018-01-31T11:27:26.156Z,33.70
2018-01-31T11:28:26.086Z,33.62
2018-01-31T11:30:18.020Z,33.62
2018-01-31T11:31:17.841Z,33.62
2018-01-31T11:33:12.758Z,33.62
2018-01-31T11:34:09.600Z,33.52
2018-01-31T11:36:01.423Z,33.62
2018-01-31T11:37:01.363Z,33.52
2018-01-31T11:38:53.187Z,33.42
2018-01-31T11:39:53.125Z,33.14
2018-01-31T11:41:44.945Z,33.62
2018-01-31T11:42:44.905Z,33.42
2018-01-31T11:44:36.891Z,33.52
2018-01-31T11:45:36.645Z,33.52
2018-01-31T11:47:28.464Z,33.41
2018-01-31T11:48:28.402Z,33.42
2018-01-31T11:50:20.221Z,33.42
2018-01-31T11:51:20.167Z,33.42
2018-01-31T11:52:20.126Z,33.42
2018-01-31T11:53:20.085Z,33.42
2018-01-31T11:54:20.049Z,33.33
2018-01-31T11:55:20.012Z,33.33
2018-01-31T11:56:19.971Z,33.52
2018-01-31T11:57:19.942Z,33.62
2018-01-31T11:58:19.895Z,33.51
2018-01-31T11:59:19.876Z,33.31
2018-01-31T12:00:19.822Z,33.70
2018-01-31T12:01:19.970Z,33.60
2018-01-31T12:02:19.753Z,33.89
2018-01-31T12:03:19.705Z,33.80
2018-01-31T12:04:19.765Z,33.60
2018-01-31T12:05:19.628Z,33.70
2018-01-31T12:06:19.590Z,33.60
2018-01-31T12:07:19.558Z,33.70
2018-01-31T12:08:19.511Z,33.70
2018-01-31T12:09:19.476Z,33.80
2018-01-31T12:10:19.438Z,33.80
2018-01-31T12:11:19.428Z,33.70
2018-01-31T12:12:19.366Z,34.27
2018-01-31T12:13:19.325Z,34.07
2018-01-31T12:14:19.286Z,34.17
2018-01-31T12:15:19.245Z,34.27
2018-01-31T12:16:19.209Z,34.55
2018-01-31T12:17:19.170Z,34.65
2018-01-31T12:18:19.372Z,34.36
2018-01-31T12:19:19.097Z,34.65
2018-01-31T12:20:19.103Z,34.65
2018-01-31T12:21:19.018Z,34.84
2018-01-31T12:22:18.989Z,34.55
2018-01-31T12:23:18.945Z,34.55
2018-01-31T12:24:18.902Z,34.75
2018-01-31T12:25:18.961Z,34.65
2018-01-31T12:26:18.986Z,34.75
2018-01-31T12:27:18.790Z,34.75
2018-01-31T12:28:18.750Z,34.75
2018-01-31T12:29:18.712Z,34.75
2018-01-31T12:30:18.673Z,35.04
2018-01-31T12:31:18.645Z,35.04
2018-01-31T12:32:18.598Z,35.23
2018-01-31T12:33:18.565Z,34.83
2018-01-31T12:34:18.529Z,35.31
2018-01-31T12:35:18.482Z,35.31
2018-01-31T12:36:18.454Z,34.73
2018-01-31T12:37:18.408Z,35.31
2018-01-31T12:38:18.368Z,35.41
2018-01-31T12:39:18.328Z,35.31
2018-01-31T12:40:18.288Z,35.50
2018-01-31T12:41:18.276Z,35.21
2018-01-31T12:42:18.215Z,35.12
2018-01-31T12:43:18.199Z,35.02
2018-01-31T12:44:18.138Z,35.31
2018-01-31T12:45:18.291Z,35.12
2018-01-31T12:46:18.064Z,35.12
2018-01-31T12:47:18.023Z,35.41
2018-01-31T12:48:18.004Z,35.31
2018-01-31T12:49:17.952Z,35.99
2018-01-31T12:50:17.913Z,36.07
2018-01-31T12:51:17.880Z,36.28
2018-01-31T12:52:17.837Z,36.38
2018-01-31T12:53:17.800Z,36.07
2018-01-31T12:54:17.762Z,36.46
2018-01-31T12:55:17.728Z,36.46
2018-01-31T12:56:17.684Z,36.65
2018-01-31T12:57:17.658Z,36.26
2018-01-31T12:58:17.612Z,36.36
2018-01-31T12:59:17.562Z,36.36
2018-01-31T13:00:17.542Z,36.74
2018-01-31T13:01:17.486Z,36.65
2018-01-31T13:02:17.450Z,36.84
2018-01-31T13:03:17.410Z,36.94
2018-01-31T13:04:17.374Z,37.13
2018-01-31T13:05:17.334Z,37.23
2018-01-31T13:06:17.296Z,36.94
2018-01-31T13:07:17.259Z,37.13
2018-01-31T13:08:17.887Z,37.13
2018-01-31T13:09:17.178Z,36.94
2018-01-31T13:10:17.151Z,37.13
2018-01-31T13:11:17.105Z,37.23
2018-01-31T13:12:17.062Z,37.23
2018-01-31T13:13:17.032Z,37.13
2018-01-31T13:14:16.993Z,37.32
2018-01-31T13:15:16.981Z,36.94
2018-01-31T13:16:16.910Z,36.94
2018-01-31T13:17:16.869Z,37.23
2018-01-31T13:18:16.837Z,37.32
2018-01-31T13:20:47.368Z,37.23
2018-01-31T13:21:47.305Z,37.23
2018-01-31T13:23:39.133Z,37.32
2018-01-31T13:24:39.312Z,37.32
2018-01-31T13:26:30.871Z,37.32
2018-01-31T13:27:30.827Z,37.13
2018-01-31T13:29:22.648Z,36.84
2018-01-31T13:30:22.584Z,37.13
2018-01-31T13:32:14.395Z,37.13
2018-01-31T13:33:14.342Z,37.23
2018-01-31T13:35:06.168Z,37.15
2018-01-31T13:36:06.100Z,36.94
2018-01-31T13:37:57.903Z,36.96
2018-01-31T13:38:57.855Z,36.28
2018-01-31T13:40:49.683Z,36.28
2018-01-31T13:41:49.617Z,36.57
2018-01-31T13:43:41.430Z,36.47
2018-01-31T13:44:41.384Z,36.18
2018-01-31T13:46:33.208Z,36.10
2018-01-31T13:47:33.143Z,36.30
2018-01-31T13:49:24.955Z,36.10
2018-01-31T13:50:24.908Z,35.81
2018-01-31T13:52:16.730Z,35.91
2018-01-31T13:53:16.665Z,36.40
2018-01-31T13:55:08.486Z,36.10
2018-01-31T13:56:08.441Z,36.10
2018-01-31T13:58:00.267Z,35.89
2018-01-31T13:59:00.202Z,36.28
2018-01-31T14:00:52.016Z,36.20
2018-01-31T14:01:51.964Z,36.30
2018-01-31T14:03:43.788Z,36.30
2018-01-31T14:04:43.722Z,35.72
2018-01-31T14:06:35.533Z,36.10
2018-01-31T14:07:35.495Z,36.10
2018-01-31T14:09:27.316Z,36.10
2018-01-31T14:10:27.331Z,36.08
2018-01-31T14:12:19.126Z,35.72
2018-01-31T14:13:19.081Z,36.38
2018-01-31T14:15:10.828Z,36.18
2018-01-31T14:16:10.765Z,35.89
2018-01-31T14:18:02.660Z,36.00
2018-01-31T14:19:02.617Z,36.00
2018-01-31T14:20:54.684Z,35.99
2018-01-31T14:21:54.383Z,36.18
2018-01-31T14:23:46.190Z,35.70
2018-01-31T14:24:46.144Z,35.99
2018-01-31T14:26:38.034Z,36.08
2018-01-31T14:27:37.921Z,35.50
2018-01-31T14:29:29.736Z,36.18
2018-01-31T14:30:29.660Z,35.80
2018-01-31T14:32:21.486Z,36.18
2018-01-31T14:33:21.444Z,36.08
2018-01-31T14:35:13.260Z,35.88
2018-01-31T14:36:13.198Z,36.38
2018-01-31T14:38:05.396Z,35.89
2018-01-31T14:39:04.956Z,35.78
2018-01-31T14:40:56.781Z,36.26
2018-01-31T14:41:56.720Z,36.16
2018-01-31T14:43:48.522Z,36.47
2018-01-31T14:44:48.480Z,36.18
2018-01-31T14:46:40.302Z,35.99
2018-01-31T14:47:40.237Z,36.28
2018-01-31T14:49:32.047Z,36.08
2018-01-31T14:50:32.002Z,36.08
2018-01-31T14:52:23.829Z,36.18
2018-01-31T14:53:23.806Z,36.28
2018-01-31T14:55:15.563Z,35.89
2018-01-31T14:56:15.513Z,36.38
2018-01-31T14:58:07.362Z,36.28
2018-01-31T14:59:07.327Z,36.16
2018-01-31T15:00:59.115Z,36.47
2018-01-31T15:01:59.067Z,36.38
2018-01-31T15:03:51.048Z,36.66
2018-01-31T15:04:51.180Z,36.46
2018-01-31T15:06:42.794Z,36.55
2018-01-31T15:07:42.747Z,36.94
2018-01-31T15:09:34.585Z,37.13
2018-01-31T15:10:34.502Z,37.13
2018-01-31T15:12:26.340Z,36.94
2018-01-31T15:13:26.275Z,36.94
2018-01-31T15:15:18.082Z,37.13
2018-01-31T15:17:29.892Z,37.42
2018-01-31T15:18:29.982Z,37.52
2018-01-31T15:19:29.781Z,37.23
2018-01-31T15:20:30.818Z,37.42
2018-01-31T15:21:29.705Z,37.23
2018-01-31T15:22:29.668Z,37.52
2018-01-31T15:23:29.627Z,37.30
2018-01-31T15:24:29.598Z,37.23
2018-01-31T15:25:29.550Z,37.60
2018-01-31T15:26:29.514Z,37.40
2018-01-31T15:27:29.472Z,37.70
2018-01-31T15:28:29.435Z,37.60
2018-01-31T15:29:29.399Z,37.70
2018-01-31T15:30:29.357Z,37.79
2018-01-31T15:31:29.318Z,37.98
2018-01-31T15:32:29.279Z,38.08
2018-01-31T15:33:29.242Z,38.06
2018-01-31T15:34:29.200Z,38.08
2018-01-31T15:35:29.421Z,38.06
2018-01-31T15:36:29.123Z,37.87
2018-01-31T15:37:29.089Z,37.96
2018-01-31T15:38:29.097Z,38.06
2018-01-31T15:39:29.006Z,38.06
2018-01-31T15:40:28.969Z,38.06
2018-01-31T15:41:28.929Z,38.16
2018-01-31T15:42:28.890Z,38.06
2018-01-31T15:43:28.851Z,37.96
2018-01-31T15:44:28.812Z,37.96
2018-01-31T15:45:28.776Z,38.06
2018-01-31T15:46:28.737Z,38.25
2018-01-31T15:47:28.695Z,38.25
2018-01-31T15:48:28.657Z,38.64
2018-01-31T15:49:28.615Z,38.45
2018-01-31T15:50:28.579Z,38.35
2018-01-31T15:51:28.539Z,38.25
2018-01-31T15:52:28.501Z,38.54
2018-01-31T15:53:28.461Z,38.45
2018-01-31T15:54:28.609Z,38.35
2018-01-31T15:55:28.383Z,38.54
2018-01-31T15:56:28.344Z,38.53
2018-01-31T15:57:28.306Z,38.64
2018-01-31T15:58:28.268Z,38.33
2018-01-31T15:59:28.227Z,38.53
2018-01-31T16:00:28.188Z,38.71
2018-01-31T16:01:28.148Z,38.81
2018-01-31T16:02:28.109Z,38.71
2018-01-31T16:03:28.070Z,38.91
2018-01-31T16:04:28.030Z,38.81
2018-01-31T16:05:27.992Z,38.71
2018-01-31T16:06:27.953Z,38.71
2018-01-31T16:07:27.914Z,38.71
2018-01-31T16:08:27.874Z,38.91
2018-01-31T16:09:27.835Z,39.01
2018-01-31T16:10:27.797Z,38.91
2018-01-31T16:11:27.756Z,39.20
2018-01-31T16:12:27.731Z,39.11
2018-01-31T16:13:27.679Z,39.01
2018-01-31T16:14:27.639Z,39.01
2018-01-31T16:15:27.602Z,39.11
2018-01-31T16:16:27.562Z,39.39
2018-01-31T16:17:27.522Z,39.39
2018-01-31T16:18:27.481Z,39.87
2018-01-31T16:19:27.443Z,39.87
2018-01-31T16:20:27.404Z,39.76
2018-01-31T16:21:27.368Z,39.37
2018-01-31T16:22:27.327Z,39.37
2018-01-31T16:23:27.288Z,39.28
2018-01-31T16:24:27.249Z,39.28
2018-01-31T16:25:27.208Z,39.86
2018-01-31T16:26:27.174Z,39.86
2018-01-31T16:27:27.129Z,39.47
2018-01-31T16:28:27.088Z,39.47
2018-01-31T16:29:27.056Z,39.47
2018-01-31T16:30:27.012Z,39.66
2018-01-31T16:31:26.975Z,39.47
2018-01-31T16:32:26.932Z,39.66
2018-01-31T16:33:26.895Z,39.57
2018-01-31T16:34:26.855Z,39.66
2018-01-31T16:35:26.809Z,39.76
2018-01-31T16:36:26.790Z,39.86
2018-01-31T16:37:26.734Z,39.86
2018-01-31T16:38:26.696Z,39.66
2018-01-31T16:39:26.655Z,39.57
2018-01-31T16:40:26.617Z,39.66
2018-01-31T16:41:26.577Z,39.57
2018-01-31T16:42:26.538Z,39.66
2018-01-31T16:43:26.498Z,39.76
2018-01-31T16:44:26.460Z,39.57
2018-01-31T16:45:26.420Z,39.86
2018-01-31T16:46:26.381Z,39.47
2018-01-31T16:47:26.340Z,39.47
2018-01-31T16:48:26.390Z,39.45
2018-01-31T16:49:26.261Z,39.86
2018-01-31T16:50:26.224Z,40.03
2018-01-31T16:51:26.183Z,39.64